Terminal Aerodrome Forecast
Issued by NWS Mt. Holly, NJ

Home | Current Version | Previous Version | Text Only | Print | Product List | Glossary On
Versions: 1 2 3 4 5 6 7 8 9 10 11 12 13 14 15 16 17 18 19 20 21 22 23 24 25 26 27 28
000
FTUS41 KPHI 282339
TAFABE
TAF
KABE 282339Z 2900/2924 VRB03KT P6SM -RA SCT012 OVC040
      TEMPO 2900/2904 3SM RA BKN012
     FM290400 08004KT 4SM BR VCSH OVC015
     FM291500 08007KT P6SM OVC020
      TEMPO 2918/2922 5SM -RA BR OVC010=

USA.gov is the U.S. government's official web portal to all federal, state and local government web resources and services.